createdAt,value
2022-08-14T00:04:57.112Z,99.90
2022-08-14T00:10:49.364Z,99.90
2022-08-14T00:15:29.855Z,99.90
2022-08-14T00:20:43.239Z,99.90
2022-08-14T00:25:53.851Z,99.90
2022-08-14T00:31:09.685Z,99.90
2022-08-14T00:36:35.422Z,99.90
2022-08-14T00:41:34.317Z,99.90
2022-08-14T00:46:37.792Z,99.90
2022-08-14T00:51:41.134Z,99.90
2022-08-14T00:56:43.141Z,99.90
2022-08-14T01:01:46.041Z,99.90
2022-08-14T01:06:51.957Z,99.90
2022-08-14T01:12:03.536Z,99.90
2022-08-14T01:17:05.814Z,99.90
2022-08-14T01:22:12.508Z,99.90
2022-08-14T01:27:19.692Z,99.90
2022-08-14T01:32:23.600Z,99.90
2022-08-14T01:37:26.288Z,99.90
2022-08-14T01:42:36.061Z,99.90
2022-08-14T01:47:38.921Z,99.90
2022-08-14T01:52:59.224Z,99.90
2022-08-14T01:58:19.509Z,99.90
2022-08-14T02:03:30.038Z,99.90
2022-08-14T02:08:34.633Z,99.90
2022-08-14T02:13:38.189Z,99.90
2022-08-14T02:18:40.037Z,99.90
2022-08-14T02:23:42.970Z,99.90
2022-08-14T02:28:57.649Z,99.90
2022-08-14T02:34:14.714Z,99.90
2022-08-14T02:39:25.148Z,99.90
2022-08-14T02:44:30.057Z,99.90
2022-08-14T02:49:34.331Z,99.90
2022-08-14T02:54:36.506Z,99.90
2022-08-14T02:59:40.346Z,99.90
2022-08-14T03:04:45.203Z,99.90
2022-08-14T03:10:25.588Z,99.90
2022-08-14T03:15:14.225Z,99.90
2022-08-14T03:20:18.276Z,99.90
2022-08-14T03:25:24.043Z,99.90
2022-08-14T03:30:39.014Z,99.90
2022-08-14T03:36:05.148Z,99.90
2022-08-14T03:41:10.913Z,99.90
2022-08-14T03:46:51.767Z,99.90
2022-08-14T03:51:37.858Z,99.90
2022-08-14T03:56:44.585Z,99.90
2022-08-14T04:01:58.100Z,99.90
2022-08-14T04:07:04.033Z,99.90
2022-08-14T04:12:06.390Z,99.90
2022-08-14T04:17:11.208Z,99.90
2022-08-14T04:22:16.691Z,99.90
2022-08-14T04:27:18.560Z,99.90
2022-08-14T04:33:02.298Z,99.90
2022-08-14T04:38:07.672Z,99.90
2022-08-14T04:43:39.980Z,99.90
2022-08-14T04:48:43.681Z,99.90
2022-08-14T04:53:54.294Z,99.90
2022-08-14T04:59:02.096Z,99.90
2022-08-14T05:04:05.673Z,99.90
2022-08-14T05:09:10.578Z,99.90
2022-08-14T05:14:45.609Z,99.90
2022-08-14T05:19:44.588Z,99.90
2022-08-14T05:25:04.277Z,99.90
2022-08-14T05:30:07.496Z,99.90
2022-08-14T05:35:11.732Z,99.90
2022-08-14T05:40:13.548Z,99.90
2022-08-14T05:45:17.263Z,99.90
2022-08-14T05:50:19.892Z,99.90
2022-08-14T05:55:23.282Z,99.90
2022-08-14T06:00:34.796Z,99.90
2022-08-14T06:05:39.855Z,99.90
2022-08-14T06:10:42.583Z,99.90
2022-08-14T06:15:45.200Z,99.90
2022-08-14T06:20:47.338Z,99.90
2022-08-14T06:25:52.853Z,99.90
2022-08-14T06:30:55.877Z,99.90
2022-08-14T06:35:58.308Z,99.90
2022-08-14T06:41:00.792Z,99.90
2022-08-14T06:46:04.030Z,99.90
2022-08-14T06:51:05.965Z,99.90
2022-08-14T06:56:07.866Z,99.90
2022-08-14T07:01:45.174Z,99.90
2022-08-14T07:06:47.792Z,99.90
2022-08-14T07:11:49.742Z,99.90
2022-08-14T07:16:51.680Z,99.90
2022-08-14T07:21:53.456Z,99.90
2022-08-14T07:26:55.306Z,99.90
2022-08-14T07:31:57.224Z,99.90
2022-08-14T07:37:00.948Z,99.90
2022-08-14T07:42:03.639Z,99.90
2022-08-14T07:47:05.705Z,99.90
2022-08-14T07:52:08.086Z,99.90
2022-08-14T07:57:12.275Z,99.90
2022-08-14T08:02:19.558Z,99.90
2022-08-14T08:07:30.094Z,99.90
2022-08-14T08:12:34.369Z,99.90
2022-08-14T08:17:39.032Z,99.90
2022-08-14T08:22:48.297Z,99.90
2022-08-14T08:27:56.922Z,99.90
2022-08-14T08:33:01.547Z,99.90
2022-08-14T08:39:14.113Z,99.90
2022-08-14T08:43:35.353Z,99.90
2022-08-14T08:54:01.089Z,99.90
2022-08-14T08:59:15.432Z,99.90
2022-08-14T09:04:18.661Z,99.90
2022-08-14T09:09:30.443Z,99.90
2022-08-14T09:14:36.444Z,99.90
2022-08-14T09:19:42.505Z,99.90
2022-08-14T09:24:47.446Z,99.90
2022-08-14T09:29:54.158Z,99.90
2022-08-14T09:35:09.579Z,99.90
2022-08-14T09:40:50.503Z,99.90
2022-08-14T09:45:57.307Z,99.90
2022-08-14T09:56:06.106Z,99.90
2022-08-14T10:01:15.002Z,99.90
2022-08-14T10:06:28.100Z,99.90
2022-08-14T10:11:36.565Z,99.90
2022-08-14T10:16:45.417Z,99.90
2022-08-14T10:23:22.233Z,99.90
2022-08-14T10:27:26.668Z,99.70
2022-08-14T10:32:40.037Z,98.20
2022-08-14T10:37:52.731Z,97.10
2022-08-14T10:42:55.461Z,96.90
2022-08-14T10:48:10.309Z,96.90
2022-08-14T10:53:35.125Z,96.90
2022-08-14T10:58:36.966Z,96.10
2022-08-14T11:03:56.619Z,96.20
2022-08-14T11:08:59.196Z,96.10
2022-08-14T11:14:01.130Z,95.90
2022-08-14T11:19:08.480Z,95.70
2022-08-14T11:24:54.383Z,95.70
2022-08-14T11:29:36.921Z,96.00
2022-08-14T11:34:39.042Z,94.70
2022-08-14T11:39:41.629Z,92.80
2022-08-14T11:44:48.744Z,93.80
2022-08-14T11:49:55.598Z,93.10
2022-08-14T11:54:58.436Z,93.80
2022-08-14T12:00:08.514Z,94.00
2022-08-14T12:05:10.606Z,93.30
2022-08-14T12:10:26.511Z,93.60
2022-08-14T12:15:34.768Z,95.00
2022-08-14T12:20:45.779Z,95.60
2022-08-14T12:26:39.316Z,93.00
2022-08-14T12:31:44.596Z,91.40
2022-08-14T12:36:48.892Z,91.10
2022-08-14T12:42:01.400Z,92.90
2022-08-14T12:47:17.538Z,92.20
2022-08-14T12:52:43.240Z,92.70
2022-08-14T12:57:58.627Z,91.30
2022-08-14T13:03:01.126Z,88.50
2022-08-14T13:08:06.258Z,82.50
2022-08-14T13:13:33.522Z,81.40
2022-08-14T13:18:40.187Z,86.20
2022-08-14T13:23:43.977Z,83.20
2022-08-14T13:29:02.271Z,83.90
2022-08-14T13:34:06.483Z,80.10
2022-08-14T13:39:09.231Z,75.10
2022-08-14T13:44:16.649Z,73.10
2022-08-14T13:49:26.167Z,70.10
2022-08-14T13:54:34.245Z,66.30
2022-08-14T13:59:37.648Z,65.50
2022-08-14T14:04:46.333Z,64.00
2022-08-14T14:09:55.215Z,63.60
2022-08-14T14:14:59.158Z,63.30
2022-08-14T14:20:34.537Z,63.00
2022-08-14T14:25:45.692Z,58.20
2022-08-14T14:30:53.336Z,58.30
2022-08-14T14:35:56.745Z,57.80
2022-08-14T14:41:01.583Z,51.20
2022-08-14T14:46:09.249Z,50.90
2022-08-14T14:51:13.747Z,47.80
2022-08-14T14:56:47.979Z,47.90
2022-08-14T15:01:39.480Z,47.70
2022-08-14T15:06:47.715Z,45.50
2022-08-14T15:11:49.992Z,47.00
2022-08-14T15:16:51.966Z,45.10
2022-08-14T15:21:54.909Z,44.60
2022-08-14T15:26:58.572Z,44.80
2022-08-14T15:32:00.557Z,44.20
2022-08-14T15:37:12.677Z,45.60
2022-08-14T15:42:16.636Z,44.70
2022-08-14T15:47:21.953Z,47.50
2022-08-14T15:52:44.858Z,50.10
2022-08-14T15:57:51.459Z,50.00
2022-08-14T16:03:08.723Z,50.70
2022-08-14T16:08:29.396Z,49.60
2022-08-14T16:13:41.716Z,52.30
2022-08-14T16:18:44.505Z,51.60
2022-08-14T16:23:47.321Z,53.10
2022-08-14T16:29:02.501Z,52.10
2022-08-14T16:34:45.452Z,53.30
2022-08-14T16:39:28.725Z,56.00
2022-08-14T16:44:39.085Z,55.20
2022-08-14T16:50:04.310Z,55.50
2022-08-14T16:55:10.987Z,56.00
2022-08-14T17:00:43.575Z,55.40
2022-08-14T17:05:48.003Z,57.70
2022-08-14T17:10:52.935Z,59.60
2022-08-14T17:16:25.454Z,59.30
2022-08-14T17:21:32.658Z,60.00
2022-08-14T17:26:39.580Z,62.30
2022-08-14T17:37:33.975Z,63.50
2022-08-14T17:42:51.730Z,65.50
2022-08-14T17:47:59.185Z,65.10
2022-08-14T17:53:02.694Z,67.30
2022-08-14T17:58:22.523Z,68.40
2022-08-14T18:03:46.416Z,68.60
2022-08-14T18:08:48.830Z,69.30
2022-08-14T18:13:59.793Z,70.10
2022-08-14T18:19:03.291Z,70.40
2022-08-14T18:24:28.488Z,72.50
2022-08-14T18:29:31.781Z,76.50
2022-08-14T18:34:45.277Z,78.40
2022-08-14T18:40:03.224Z,79.60
2022-08-14T18:45:12.874Z,81.10
2022-08-14T18:50:35.622Z,82.00
2022-08-14T18:55:52.864Z,82.60
2022-08-14T19:01:07.914Z,82.90
2022-08-14T19:06:17.148Z,83.30
2022-08-14T19:11:51.991Z,83.80
2022-08-14T19:16:56.319Z,84.50
2022-08-14T19:21:58.950Z,85.00
2022-08-14T19:27:22.884Z,85.60
2022-08-14T19:32:39.696Z,86.70
2022-08-14T19:37:56.245Z,87.00
2022-08-14T19:42:59.349Z,88.20
2022-08-14T19:48:02.731Z,89.10
2022-08-14T19:53:11.246Z,90.40
2022-08-14T19:58:13.761Z,90.50
2022-08-14T20:03:18.794Z,91.20
2022-08-14T20:10:59.959Z,91.90
2022-08-14T20:14:22.819Z,92.40
2022-08-14T20:19:38.043Z,92.90
2022-08-14T20:24:45.193Z,93.60
2022-08-14T20:30:26.686Z,94.10
2022-08-14T20:35:41.845Z,94.70
2022-08-14T20:40:50.464Z,95.70
2022-08-14T20:45:52.764Z,96.00
2022-08-14T20:50:57.875Z,96.30
2022-08-14T20:56:29.100Z,96.60
2022-08-14T21:01:35.699Z,97.10
2022-08-14T21:07:22.678Z,97.40
2022-08-14T21:12:03.790Z,97.90
2022-08-14T21:17:06.209Z,98.50
2022-08-14T21:22:08.042Z,98.40
2022-08-14T21:27:22.011Z,98.70
2022-08-14T21:32:50.052Z,99.00
2022-08-14T21:37:53.723Z,99.40
2022-08-14T21:42:55.744Z,99.90
2022-08-14T21:47:58.194Z,99.90
2022-08-14T21:53:03.831Z,99.90
2022-08-14T21:58:52.838Z,99.90
2022-08-14T22:03:35.009Z,99.90
2022-08-14T22:08:40.581Z,99.90
2022-08-14T22:13:48.947Z,99.90
2022-08-14T22:18:51.590Z,99.90
2022-08-14T22:23:53.823Z,99.90
2022-08-14T22:28:58.497Z,99.90
2022-08-14T22:34:00.610Z,99.90
2022-08-14T22:39:03.279Z,99.90
2022-08-14T22:44:13.326Z,99.90
2022-08-14T22:50:30.033Z,99.90
2022-08-14T22:54:52.302Z,99.90
2022-08-14T22:59:55.524Z,99.90
2022-08-14T23:04:58.159Z,99.90
2022-08-14T23:10:33.066Z,99.90
2022-08-14T23:15:24.495Z,99.90
2022-08-14T23:20:33.845Z,99.90
2022-08-14T23:25:59.719Z,99.90
2022-08-14T23:31:05.744Z,99.90
2022-08-14T23:36:32.314Z,99.90
2022-08-14T23:41:46.452Z,99.90
2022-08-14T23:47:00.474Z,99.90
2022-08-14T23:52:57.498Z,99.90
2022-08-14T23:57:28.619Z,99.90
